Gentleman — WTA9437 — position and weather

sailwx.info

Track history (hours):
 
Tides and Currents Weather Stations Pressure Air Temp Water Temp Dewpoint Dewpoint Depression Visibility Wind Speed Wind Dir Waves Ship Positions

Gentleman

Owner: CHANNEL ISLAND SPORTFISHING, OXNARD, CA. More information available from US FCC via Universal Licensing System and Coast Guard Vessel Documentation Center.

Last reported at 2018-Aug-14 06:58 UTC. Time now 2018-Aug-14 07:02 UTC.
Position N 34°10' W 119°13'.

Length 20 m.

Type: Passenger vessel. MMSI: 367362110.

Date/timePositionNaut miles runAvg speedWind from/ knotsBaromVisibWave heightAir tempDewpointWater temp
2018-Aug-14 06:58N 34°10' W 119°13'0 0.0
2018-Aug-14 06:25N 34°10' W 119°13'0 0.0
2018-Aug-14 05:58N 34°10' W 119°13'0 0.0
2018-Aug-14 05:13N 34°10' W 119°13'0 0.0
2018-Aug-14 04:52N 34°10' W 119°13'0 0.0
2018-Aug-14 04:28N 34°10' W 119°13'0 0.0
2018-Aug-14 03:58N 34°10' W 119°13'0 0.0
2018-Aug-14 03:25N 34°10' W 119°13'0 0.0
2018-Aug-14 02:58N 34°10' W 119°13'0 0.0
2018-Aug-14 02:13N 34°10' W 119°13'0 0.0
2018-Aug-14 01:55N 34°10' W 119°13'0 0.0
2018-Aug-14 01:16N 34°10' W 119°13'0 0.0
2018-Aug-14 00:55N 34°10' W 119°13'0 0.2
2018-Aug-14 00:29N 34°10' W 119°13'0 0.0
2018-Aug-13 23:53N 34°10' W 119°13'2 5.5
2018-Aug-13 23:27N 34°09' W 119°16'4 8.7
2018-Aug-13 22:58N 34°08' W 119°21'4 8.6
2018-Aug-13 22:30N 34°06' W 119°25'5 9.0
2018-Aug-13 22:00N 34°05' W 119°31'6 9.0
2018-Aug-13 21:21N 34°04' W 119°38'3 8.8
2018-Aug-13 20:59N 34°03' W 119°41'2 4.4
2018-Aug-13 20:26N 34°03' W 119°44'2 1.6
2018-Aug-13 19:15N 34°03' W 119°47'0 0.1
2018-Aug-13 19:00N 34°03' W 119°47'0 0.1
2018-Aug-13 17:57N 34°03' W 119°46'1 1.2
2018-Aug-13 17:29N 34°04' W 119°46'1 0.8
2018-Aug-13 16:50N 34°03' W 119°45'0 0.1
2018-Aug-13 16:30N 34°03' W 119°45'4 6.5
2018-Aug-13 15:57N 34°04' W 119°41'5 8.9
2018-Aug-13 15:26N 34°06' W 119°36'4 9.3
2018-Aug-13 15:00N 34°06' W 119°31'5 9.6
2018-Aug-13 14:30N 34°07' W 119°25'5 9.7
2018-Aug-13 14:00N 34°08' W 119°19'5 9.2
2018-Aug-13 13:30N 34°09' W 119°14'1 1.4
2018-Aug-13 12:53N 34°10' W 119°13'0 0.0
2018-Aug-13 12:23N 34°10' W 119°13'0 0.0
2018-Aug-13 11:56N 34°10' W 119°13'0 0.0
2018-Aug-13 11:29N 34°10' W 119°13'0 0.0
2018-Aug-13 10:53N 34°10' W 119°13'0 0.0
2018-Aug-13 10:29N 34°10' W 119°13'0 0.0
2018-Aug-13 09:56N 34°10' W 119°13'0 0.0
2018-Aug-13 09:29N 34°10' W 119°13'0 0.0
2018-Aug-13 08:53N 34°10' W 119°13'0 0.0
2018-Aug-13 08:23N 34°10' W 119°13'0 0.0
2018-Aug-13 07:56N 34°10' W 119°13'0 0.0
2018-Aug-13 07:23N 34°10' W 119°13'0 0.0
2018-Aug-13 06:56N 34°10' W 119°13'0 0.0
2018-Aug-13 06:23N 34°10' W 119°13'0 0.0
2018-Aug-13 05:56N 34°10' W 119°13'0 0.0
2018-Aug-13 05:29N 34°10' W 119°13'0 0.0
2018-Aug-13 04:53N 34°10' W 119°13'0 0.0
2018-Aug-13 04:29N 34°10' W 119°13'0 0.0
2018-Aug-13 03:56N 34°10' W 119°13'0 0.0
2018-Aug-13 03:23N 34°10' W 119°13'0 0.0
2018-Aug-13 02:56N 34°10' W 119°13'0 0.0
2018-Aug-13 02:26N 34°10' W 119°13'0 0.0
2018-Aug-13 01:47N 34°10' W 119°13'0 0.0
2018-Aug-13 01:23N 34°10' W 119°13'0 0.0
2018-Aug-13 00:56N 34°10' W 119°13'0 0.0
2018-Aug-13 00:23N 34°10' W 119°13'0 0.0
2018-Aug-12 23:56N 34°10' W 119°13'0 0.0
2018-Aug-12 23:23N 34°10' W 119°13'0 0.7
2018-Aug-12 22:59N 34°10' W 119°13'4 8.6
2018-Aug-12 22:30N 34°08' W 119°18'4 7.9
2018-Aug-12 22:00N 34°07' W 119°23'4 7.8
2018-Aug-12 21:29N 34°06' W 119°27'4 7.8
2018-Aug-12 21:00N 34°04' W 119°32'4 8.5
2018-Aug-12 20:29N 34°03' W 119°36'2 1.9
2018-Aug-12 19:35N 34°01' W 119°38'0 0.2
2018-Aug-12 19:17N 34°01' W 119°38'0 0.0
2018-Aug-12 18:55N 34°01' W 119°38'2 3.0
2018-Aug-12 18:23N 34°02' W 119°36'1 0.7
2018-Aug-12 17:25N 34°03' W 119°36'0 0.1
2018-Aug-12 16:35N 34°03' W 119°36'0 0.0
2018-Aug-12 16:26N 34°03' W 119°36'0 0.1
2018-Aug-12 15:47N 34°03' W 119°36'0 0.0
2018-Aug-12 15:23N 34°03' W 119°36'3 7.0
2018-Aug-12 14:58N 34°05' W 119°33'5 9.3
2018-Aug-12 14:26N 34°06' W 119°27'4 9.7
2018-Aug-12 14:00N 34°07' W 119°22'5 9.4
2018-Aug-12 13:30N 34°08' W 119°17'3 5.8
2018-Aug-12 12:58N 34°10' W 119°13'0 0.0
2018-Aug-12 12:28N 34°10' W 119°13'0 0.0
2018-Aug-12 12:00N 34°10' W 119°13'0 0.0
2018-Aug-12 11:30N 34°10' W 119°13'0 0.0
2018-Aug-12 10:21N 34°10' W 119°13'0 0.0
2018-Aug-12 09:57N 34°10' W 119°13'0 0.0
2018-Aug-12 09:30N 34°10' W 119°13'0 0.0
2018-Aug-12 08:57N 34°10' W 119°13'0 0.0
2018-Aug-12 08:27N 34°10' W 119°13'0 0.0
2018-Aug-12 07:51N 34°10' W 119°13'0 0.0
2018-Aug-12 07:30N 34°10' W 119°13'0 0.0
2018-Aug-12 07:00N 34°10' W 119°13'0 0.0
2018-Aug-12 06:27N 34°10' W 119°13'0 0.0
2018-Aug-12 06:00N 34°10' W 119°13'0 0.0
2018-Aug-12 05:18N 34°10' W 119°13'0 0.0
2018-Aug-12 04:57N 34°10' W 119°13'0 0.0
2018-Aug-12 04:30N 34°10' W 119°13'0 0.0
2018-Aug-12 03:57N 34°10' W 119°13'0 0.0
2018-Aug-12 03:30N 34°10' W 119°13'0 0.0
2018-Aug-12 03:00N 34°10' W 119°13'0 0.0
2018-Aug-12 02:30N 34°10' W 119°13'0 0.0
2018-Aug-12 02:00N 34°10' W 119°13'0 0.0
2018-Aug-12 01:12N 34°10' W 119°13'0 0.0
2018-Aug-12 00:51N 34°10' W 119°13'0 0.0
2018-Aug-12 00:30N 34°10' W 119°13'0 0.0
2018-Aug-12 00:00N 34°10' W 119°13'0 0.0
2018-Aug-11 23:12N 34°10' W 119°13'0 0.0
2018-Aug-11 22:51N 34°10' W 119°13'0 0.0
2018-Aug-11 22:27N 34°10' W 119°13'0 0.0
2018-Aug-11 21:51N 34°10' W 119°13'0 0.2
2018-Aug-11 21:29N 34°10' W 119°13'4 8.1
2018-Aug-11 21:00N 34°07' W 119°16'5 9.2
2018-Aug-11 20:30N 34°03' W 119°19'4 6.9
2018-Aug-11 19:55N 33°60' W 119°23'0 0.1
2018-Aug-11 19:30N 33°60' W 119°23'1 1.3
2018-Aug-11 18:51N 34°01' W 119°22'1 1.8
2018-Aug-11 18:30N 34°01' W 119°21'0 0.4
2018-Aug-11 17:51N 34°01' W 119°21'2 2.1
2018-Aug-11 17:05N 34°00' W 119°23'1 8.5
2018-Aug-11 16:59N 34°00' W 119°24'2 2.5
2018-Aug-11 16:14N 34°00' W 119°26'1 0.5
2018-Aug-11 14:50N 34°01' W 119°26'3 8.2
2018-Aug-11 14:27N 34°03' W 119°23'5 9.4
2018-Aug-11 13:57N 34°06' W 119°18'5 9.4
2018-Aug-11 13:28N 34°09' W 119°14'1 1.1
2018-Aug-11 12:24N 34°10' W 119°13'0 0.0
2018-Aug-11 12:00N 34°10' W 119°13'0 0.0
2018-Aug-11 11:30N 34°10' W 119°13'0 0.0
2018-Aug-11 10:57N 34°10' W 119°13'0 0.0
2018-Aug-11 09:57N 34°10' W 119°13'0 0.0
2018-Aug-11 08:30N 34°10' W 119°13'0 0.0
2018-Aug-11 08:00N 34°10' W 119°13'0 0.0
2018-Aug-11 07:27N 34°10' W 119°13'0 0.0
2018-Aug-11 07:00N 34°10' W 119°13'0 0.0
2018-Aug-11 05:21N 34°10' W 119°13'0 0.0
2018-Aug-11 05:00N 34°10' W 119°13'0 0.0
2018-Aug-11 04:24N 34°10' W 119°13'0 0.0
2018-Aug-11 04:00N 34°10' W 119°13'0 0.0
2018-Aug-11 01:42N 34°10' W 119°13'0 0.0
2018-Aug-10 23:48N 34°10' W 119°13'0 0.2
2018-Aug-10 23:27N 34°10' W 119°13'3 5.7
2018-Aug-10 22:57N 34°09' W 119°17'4 8.5
2018-Aug-10 22:30N 34°08' W 119°21'5 9.4
2018-Aug-10 21:59N 34°06' W 119°27'4 9.3
2018-Aug-10 21:30N 34°05' W 119°32'5 9.0
2018-Aug-10 20:55N 34°04' W 119°38'4 8.9
2018-Aug-10 20:29N 34°03' W 119°43'1 2.5
2018-Aug-10 19:55N 34°03' W 119°44'0 0.0
2018-Aug-10 19:28N 34°03' W 119°44'2 1.7
2018-Aug-10 18:23N 34°04' W 119°46'1 2.3
2018-Aug-10 17:52N 34°03' W 119°45'0 0.1
2018-Aug-10 17:19N 34°03' W 119°45'0 0.0
2018-Aug-10 16:49N 34°03' W 119°45'0 0.0
2018-Aug-10 16:22N 34°03' W 119°45'2 6.3
2018-Aug-10 16:00N 34°04' W 119°42'4 8.9
2018-Aug-10 15:30N 34°04' W 119°37'4 8.6
2018-Aug-10 14:59N 34°06' W 119°32'5 9.2
2018-Aug-10 14:24N 34°07' W 119°26'4 9.6
2018-Aug-10 13:59N 34°08' W 119°21'5 9.4
2018-Aug-10 13:28N 34°09' W 119°15'2 2.5
2018-Aug-10 12:47N 34°10' W 119°13'0 0.0
2018-Aug-10 11:08N 34°10' W 119°13'0 0.0
2018-Aug-10 10:50N 34°10' W 119°13'0 0.0
2018-Aug-10 10:02N 34°10' W 119°13'0 0.0
2018-Aug-10 09:41N 34°10' W 119°13'0 0.0
2018-Aug-10 09:29N 34°10' W 119°13'0 0.0
2018-Aug-10 08:59N 34°10' W 119°13'0 0.0
2018-Aug-10 08:17N 34°10' W 119°13'0 0.0
2018-Aug-10 07:56N 34°10' W 119°13'0 0.0
2018-Aug-10 07:05N 34°10' W 119°13'0 0.0
2018-Aug-10 06:53N 34°10' W 119°13'0 0.0
2018-Aug-10 06:29N 34°10' W 119°13'0 0.0
2018-Aug-10 04:56N 34°10' W 119°13'0 0.0
2018-Aug-10 02:59N 34°10' W 119°13'0 0.0
2018-Aug-10 01:14N 34°10' W 119°13'0 0.0
2018-Aug-09 23:44N 34°10' W 119°13'0 0.0
2018-Aug-09 23:17N 34°10' W 119°13'0 1.0
2018-Aug-09 22:59N 34°10' W 119°13'5 7.8
2018-Aug-09 22:23N 34°07' W 119°18'4 7.9
2018-Aug-09 21:54N 34°04' W 119°22'3 8.1
2018-Aug-09 21:29N 34°02' W 119°25'2 2.4
2018-Aug-09 20:33N 34°00' W 119°26'2 1.0
2018-Aug-09 19:01N 33°60' W 119°24'0 0.2
2018-Aug-09 19:00N 33°60' W 119°24'2 2.9
2018-Aug-09 18:27N 34°00' W 119°22'1 2.0
2018-Aug-09 17:50N 34°01' W 119°21'0 0.9
2018-Aug-09 17:20N 34°01' W 119°21'0 0.1
2018-Aug-09 16:53N 34°01' W 119°21'0 0.0
2018-Aug-09 16:29N 34°01' W 119°21'2 3.7
2018-Aug-09 15:59N 34°01' W 119°24'2 3.3
2018-Aug-09 15:25N 34°01' W 119°26'0 0.0
2018-Aug-09 14:55N 34°01' W 119°26'3 6.0
2018-Aug-09 14:29N 34°03' W 119°24'5 8.7
2018-Aug-09 13:56N 34°06' W 119°19'4 8.9
2018-Aug-09 13:30N 34°08' W 119°15'2 2.7
2018-Aug-09 12:39N 34°10' W 119°13'0 0.0
2018-Aug-09 12:30N 34°10' W 119°13'0 0.0
2018-Aug-09 11:52N 34°10' W 119°13'0 0.0
2018-Aug-09 11:28N 34°10' W 119°13'0 0.0
2018-Aug-09 10:58N 34°10' W 119°13'0 0.0
2018-Aug-09 10:19N 34°10' W 119°13'0 0.0
2018-Aug-09 09:49N 34°10' W 119°13'0 0.0
2018-Aug-09 09:22N 34°10' W 119°13'0 0.0
2018-Aug-09 08:58N 34°10' W 119°13'0 0.0
2018-Aug-09 08:22N 34°10' W 119°13'0 0.0
2018-Aug-09 07:49N 34°10' W 119°13'0 0.0
2018-Aug-09 07:19N 34°10' W 119°13'0 0.0
2018-Aug-09 06:01N 34°10' W 119°13'0 0.0
2018-Aug-09 05:46N 34°10' W 119°13'0 0.0
2018-Aug-09 05:16N 34°10' W 119°13'0 0.0
2018-Aug-09 02:34N 34°10' W 119°13'0 0.0
2018-Aug-09 02:04N 34°10' W 119°13'0 0.0
2018-Aug-09 01:49N 34°10' W 119°13'0 0.0
2018-Aug-09 01:10N 34°10' W 119°13'0 0.0
2018-Aug-09 00:58N 34°10' W 119°13'0 0.0
2018-Aug-08 23:49N 34°10' W 119°13'0 0.0
2018-Aug-08 23:25N 34°10' W 119°13'1 1.7
2018-Aug-08 22:58N 34°09' W 119°14'4 7.5
2018-Aug-08 22:28N 34°07' W 119°18'4 7.1
2018-Aug-08 21:58N 34°05' W 119°21'4 8.1
2018-Aug-08 21:30N 34°03' W 119°25'3 5.7
2018-Aug-08 20:54N 33°60' W 119°27'0 0.5
2018-Aug-08 20:26N 34°00' W 119°27'0 0.2
2018-Aug-08 19:58N 34°00' W 119°27'0 0.3
2018-Aug-08 19:29N 34°00' W 119°27'0 0.4
2018-Aug-08 18:56N 34°00' W 119°27'0 0.2
2018-Aug-08 18:29N 34°00' W 119°27'1 2.9
2018-Aug-08 18:00N 34°01' W 119°26'0 0.1
2018-Aug-08 17:10N 34°01' W 119°26'0 0.0
2018-Aug-08 17:00N 34°01' W 119°26'0 0.1
2018-Aug-08 16:19N 34°01' W 119°26'0 0.0
2018-Aug-08 15:58N 34°01' W 119°26'0 0.0
2018-Aug-08 15:28N 34°01' W 119°26'0 0.8
2018-Aug-08 14:56N 34°01' W 119°25'4 9.1
2018-Aug-08 14:30N 34°02' W 119°21'4 7.7
2018-Aug-08 14:00N 34°06' W 119°18'4 7.9
2018-Aug-08 13:29N 34°08' W 119°15'2 2.8
2018-Aug-08 12:51N 34°10' W 119°13'0 0.0
2018-Aug-08 12:30N 34°10' W 119°13'0 0.0
2018-Aug-08 11:49N 34°10' W 119°13'0 0.0
2018-Aug-08 11:28N 34°10' W 119°13'0 0.0
2018-Aug-08 10:58N 34°10' W 119°13'0 0.0
2018-Aug-08 10:28N 34°10' W 119°13'0 0.0
2018-Aug-08 09:55N 34°10' W 119°13'0 0.0
2018-Aug-08 09:28N 34°10' W 119°13'0 0.0
2018-Aug-08 08:58N 34°10' W 119°13'0 0.0
2018-Aug-08 08:25N 34°10' W 119°13'0 0.0
2018-Aug-08 07:55N 34°10' W 119°13'0 0.0
2018-Aug-08 07:25N 34°10' W 119°13'0 0.0
2018-Aug-08 06:46N 34°10' W 119°13'0 0.0
2018-Aug-08 06:19N 34°10' W 119°13'0 0.0
2018-Aug-08 04:58N 34°10' W 119°13'0 0.0
2018-Aug-08 04:19N 34°10' W 119°13'0 0.0
2018-Aug-08 03:58N 34°10' W 119°13'0 0.0
2018-Aug-08 03:16N 34°10' W 119°13'0 0.0
2018-Aug-07 23:10N 34°10' W 119°13'0 0.0
2018-Aug-07 22:57N 34°10' W 119°13'3 6.7
2018-Aug-07 22:28N 34°08' W 119°16'4 8.2
2018-Aug-07 21:59N 34°05' W 119°20'4 8.0
2018-Aug-07 21:30N 34°03' W 119°24'3 2.4
2018-Aug-07 20:09N 34°01' W 119°27'0 0.0
2018-Aug-07 19:45N 34°01' W 119°27'0 0.0
2018-Aug-07 19:29N 34°01' W 119°27'0 0.4
2018-Aug-07 18:55N 34°01' W 119°27'3 5.2
2018-Aug-07 18:21N 34°00' W 119°24'1 2.7
2018-Aug-07 18:00N 34°00' W 119°22'1 0.9
2018-Aug-07 17:14N 34°01' W 119°22'1 0.8
2018-Aug-07 16:37N 34°01' W 119°21'0 0.0
2018-Aug-07 16:13N 34°01' W 119°21'0 0.1
2018-Aug-07 15:59N 34°01' W 119°21'0 0.0
2018-Aug-07 15:22N 34°01' W 119°21'0 0.0
2018-Aug-07 14:37N 34°01' W 119°21'0 2.8
2018-Aug-07 14:27N 34°01' W 119°21'4 8.3
2018-Aug-07 13:57N 34°05' W 119°18'4 8.2
2018-Aug-07 13:29N 34°08' W 119°15'3 4.0
2018-Aug-07 12:51N 34°10' W 119°13'0 0.0
2018-Aug-07 12:30N 34°10' W 119°13'0 0.0
2018-Aug-07 11:56N 34°10' W 119°13'0 0.0
2018-Aug-07 11:29N 34°10' W 119°13'0 0.0
2018-Aug-07 10:59N 34°10' W 119°13'0 0.0
2018-Aug-07 10:26N 34°10' W 119°13'0 0.0
2018-Aug-07 09:35N 34°10' W 119°13'0 0.0
2018-Aug-07 09:26N 34°10' W 119°13'0 0.0
2018-Aug-07 08:59N 34°10' W 119°13'0 0.0
2018-Aug-07 07:20N 34°10' W 119°13'0 0.0
2018-Aug-07 06:56N 34°10' W 119°13'0 0.0
2018-Aug-06 23:41N 34°10' W 119°13'0 0.3
2018-Aug-06 23:28N 34°10' W 119°13'5 7.8
2018-Aug-06 22:52N 34°08' W 119°19'4 8.7
2018-Aug-06 22:27N 34°07' W 119°23'4 8.9
2018-Aug-06 21:58N 34°06' W 119°28'4 8.8
2018-Aug-06 21:30N 34°04' W 119°32'3 2.9
2018-Aug-06 20:21N 34°03' W 119°36'2 5.5
2018-Aug-06 19:58N 34°01' W 119°38'1 2.1
2018-Aug-06 19:28N 34°01' W 119°39'1 1.6
2018-Aug-06 18:52N 34°01' W 119°40'3 7.1
2018-Aug-06 18:30N 34°02' W 119°37'1 1.7
2018-Aug-06 17:56N 34°03' W 119°36'0 0.9
2018-Aug-06 17:30N 34°03' W 119°36'0 0.0
2018-Aug-06 16:45N 34°03' W 119°36'0 0.0
2018-Aug-06 16:18N 34°03' W 119°36'0 0.0
2018-Aug-06 15:51N 34°03' W 119°36'2 5.2
2018-Aug-06 15:28N 34°04' W 119°34'4 8.7
2018-Aug-06 14:59N 34°05' W 119°29'4 8.4
2018-Aug-06 14:28N 34°07' W 119°24'4 8.5
2018-Aug-06 14:00N 34°08' W 119°20'4 8.6
2018-Aug-06 13:30N 34°09' W 119°14'1 2.2
2018-Aug-06 12:58N 34°10' W 119°13'0 0.0
2018-Aug-06 12:29N 34°10' W 119°13'0 0.0
2018-Aug-06 11:56N 34°10' W 119°13'0 0.0
2018-Aug-06 11:29N 34°10' W 119°13'0 0.0
2018-Aug-06 10:53N 34°10' W 119°13'0 0.0
2018-Aug-06 10:26N 34°10' W 119°13'0 0.0
2018-Aug-06 09:56N 34°10' W 119°13'0 0.0
2018-Aug-06 09:29N 34°10' W 119°13'0 0.0
2018-Aug-06 08:59N 34°10' W 119°13'0 0.0
2018-Aug-06 08:26N 34°10' W 119°13'0 0.0
2018-Aug-06 07:59N 34°10' W 119°13'0 0.0
2018-Aug-06 06:56N 34°10' W 119°13'0 0.0
2018-Aug-06 06:29N 34°10' W 119°13'0 0.0
2018-Aug-06 05:59N 34°10' W 119°13'0 0.0
2018-Aug-06 05:26N 34°10' W 119°13'0 0.0
2018-Aug-06 04:59N 34°10' W 119°13'0 0.0
2018-Aug-06 04:23N 34°10' W 119°13'0 0.0
2018-Aug-06 03:56N 34°10' W 119°13'0 0.0
2018-Aug-06 03:26N 34°10' W 119°13'0 0.0
2018-Aug-06 02:59N 34°10' W 119°13'0 0.0
2018-Aug-06 02:29N 34°10' W 119°13'0 0.0
2018-Aug-06 01:59N 34°10' W 119°13'0 0.0
2018-Aug-06 01:29N 34°10' W 119°13'0 0.0
2018-Aug-06 00:59N 34°10' W 119°13'0 0.0
2018-Aug-06 00:26N 34°10' W 119°13'0 0.0
2018-Aug-05 23:56N 34°10' W 119°13'0 0.0
2018-Aug-05 23:17N 34°10' W 119°13'0 0.7
2018-Aug-05 22:59N 34°10' W 119°13'2 3.7
2018-Aug-05 22:30N 34°08' W 119°15'3 5.8
2018-Aug-05 21:59N 34°06' W 119°17'3 6.5
2018-Aug-05 21:30N 34°04' W 119°20'4 6.7
2018-Aug-05 20:56N 34°00' W 119°22'1 1.3
2018-Aug-05 20:29N 34°00' W 119°23'0 0.1
2018-Aug-05 19:38N 34°00' W 119°23'2 7.6
2018-Aug-05 19:26N 34°01' W 119°21'0 0.2
2018-Aug-05 18:58N 34°01' W 119°21'0 0.0
2018-Aug-05 18:28N 34°01' W 119°21'0 0.0
2018-Aug-05 17:58N 34°01' W 119°21'0 0.9
2018-Aug-05 17:30N 34°01' W 119°21'0 0.0
2018-Aug-05 17:00N 34°01' W 119°21'0 0.1
2018-Aug-05 16:30N 34°01' W 119°21'0 0.0
2018-Aug-05 16:00N 34°01' W 119°21'0 0.0
2018-Aug-05 15:09N 34°01' W 119°21'0 0.0
2018-Aug-05 15:00N 34°01' W 119°21'2 4.5
2018-Aug-05 14:29N 34°03' W 119°21'8 7.8
2018-Aug-05 13:30N 34°09' W 119°15'1 2.6
2018-Aug-05 12:57N 34°10' W 119°13'0 0.0
2018-Aug-05 12:29N 34°10' W 119°13'0 0.0
2018-Aug-05 11:56N 34°10' W 119°13'0 0.0
2018-Aug-05 11:15N 34°10' W 119°13'0 0.0
2018-Aug-05 10:38N 34°10' W 119°13'0 0.0
2018-Aug-05 10:17N 34°10' W 119°13'0 0.0
2018-Aug-05 09:53N 34°10' W 119°13'0 0.0
2018-Aug-05 09:26N 34°10' W 119°13'0 0.0
2018-Aug-05 08:56N 34°10' W 119°13'0 0.0
2018-Aug-05 08:29N 34°10' W 119°13'0 0.0
2018-Aug-05 07:56N 34°10' W 119°13'0 0.0
2018-Aug-05 07:29N 34°10' W 119°13'0 0.0
2018-Aug-05 06:59N 34°10' W 119°13'0 0.0
2018-Aug-05 06:23N 34°10' W 119°13'0 0.0
2018-Aug-05 05:02N 34°10' W 119°13'0 0.0
2018-Aug-05 04:59N 34°10' W 119°13'0 0.0
2018-Aug-05 04:02N 34°10' W 119°13'0 0.0
2018-Aug-05 03:59N 34°10' W 119°13'0 0.0
2018-Aug-05 03:29N 34°10' W 119°13'0 0.0
2018-Aug-05 02:53N 34°10' W 119°13'0 0.0
2018-Aug-05 02:29N 34°10' W 119°13'0 0.0
2018-Aug-05 01:56N 34°10' W 119°13'0 0.0
2018-Aug-05 01:26N 34°10' W 119°13'0 0.0
2018-Aug-05 00:59N 34°10' W 119°13'0 0.0
2018-Aug-05 00:29N 34°10' W 119°13'0 0.1
2018-Aug-05 00:00N 34°10' W 119°13'0 0.1
2018-Aug-04 23:28N 34°10' W 119°13'1 1.0
2018-Aug-04 22:54N 34°09' W 119°14'0 1.1
2018-Aug-04 22:29N 34°09' W 119°14'2 4.4
2018-Aug-04 22:00N 34°08' W 119°16'3 5.9
2018-Aug-04 21:30N 34°05' W 119°18'3 6.1
2018-Aug-04 21:00N 34°03' W 119°21'2 3.8
2018-Aug-04 20:29N 34°01' W 119°21'0 0.0
2018-Aug-04 20:00N 34°01' W 119°21'1 2.1
2018-Aug-04 19:29N 34°00' W 119°22'0 0.3
2018-Aug-04 18:58N 34°00' W 119°22'1 2.3
2018-Aug-04 18:26N 34°01' W 119°21'0 0.0
2018-Aug-04 17:56N 34°01' W 119°21'0 0.0
2018-Aug-04 17:29N 34°01' W 119°21'0 0.1
2018-Aug-04 16:56N 34°01' W 119°21'0 1.0
2018-Aug-04 16:27N 34°01' W 119°21'0 0.0
2018-Aug-04 15:57N 34°01' W 119°21'0 0.0
2018-Aug-04 15:27N 34°01' W 119°21'0 0.0
2018-Aug-04 15:00N 34°01' W 119°21'1 1.4
2018-Aug-04 14:29N 34°02' W 119°21'4 8.1
2018-Aug-04 14:00N 34°05' W 119°18'4 8.1
2018-Aug-04 13:30N 34°08' W 119°15'2 2.5
2018-Aug-04 12:36N 34°10' W 119°13'0 0.0
2018-Aug-04 12:27N 34°10' W 119°13'0 0.0
2018-Aug-04 11:38N 34°10' W 119°13'0 0.0
2018-Aug-04 11:26N 34°10' W 119°13'0 0.0
2018-Aug-04 10:59N 34°10' W 119°13'0 0.0
2018-Aug-04 10:23N 34°10' W 119°13'0 0.0
2018-Aug-04 09:59N 34°10' W 119°13'0 0.0
2018-Aug-04 09:26N 34°10' W 119°13'0 0.0
2018-Aug-04 08:56N 34°10' W 119°13'0 0.0
2018-Aug-04 08:26N 34°10' W 119°13'0 0.0
2018-Aug-04 07:59N 34°10' W 119°13'0 0.0
2018-Aug-04 07:29N 34°10' W 119°13'0 0.0
2018-Aug-04 06:59N 34°10' W 119°13'0 0.0
2018-Aug-04 06:29N 34°10' W 119°13'  
Track history (hours):
 
Tides and Currents Weather Stations Pressure Air Temp Water Temp Dewpoint Dewpoint Depression Visibility Wind Speed Wind Dir Waves Ship Positions

Gentleman

Owner: CHANNEL ISLAND SPORTFISHING, OXNARD, CA. More information available from US FCC via Universal Licensing System and Coast Guard Vessel Documentation Center.

Last reported at 2018-Aug-14 06:58 UTC. Time now 2018-Aug-14 07:02 UTC.
Position N 34°10' W 119°13'.

Length 20 m.

Type: Passenger vessel. MMSI: 367362110.

Date/timePositionNaut miles runAvg speedWind from/ knotsBaromVisibWave heightAir tempDewpointWater temp
2018-Aug-14 06:58N 34°10' W 119°13'0 0.0
2018-Aug-14 06:25N 34°10' W 119°13'0 0.0
2018-Aug-14 05:58N 34°10' W 119°13'0 0.0
2018-Aug-14 05:13N 34°10' W 119°13'0 0.0
2018-Aug-14 04:52N 34°10' W 119°13'0 0.0
2018-Aug-14 04:28N 34°10' W 119°13'0 0.0
2018-Aug-14 03:58N 34°10' W 119°13'0 0.0
2018-Aug-14 03:25N 34°10' W 119°13'0 0.0
2018-Aug-14 02:58N 34°10' W 119°13'0 0.0
2018-Aug-14 02:13N 34°10' W 119°13'0 0.0
2018-Aug-14 01:55N 34°10' W 119°13'0 0.0
2018-Aug-14 01:16N 34°10' W 119°13'0 0.0
2018-Aug-14 00:55N 34°10' W 119°13'0 0.2
2018-Aug-14 00:29N 34°10' W 119°13'0 0.0
2018-Aug-13 23:53N 34°10' W 119°13'2 5.5
2018-Aug-13 23:27N 34°09' W 119°16'4 8.7
2018-Aug-13 22:58N 34°08' W 119°21'4 8.6
2018-Aug-13 22:30N 34°06' W 119°25'5 9.0
2018-Aug-13 22:00N 34°05' W 119°31'6 9.0
2018-Aug-13 21:21N 34°04' W 119°38'3 8.8
2018-Aug-13 20:59N 34°03' W 119°41'2 4.4
2018-Aug-13 20:26N 34°03' W 119°44'2 1.6
2018-Aug-13 19:15N 34°03' W 119°47'0 0.1
2018-Aug-13 19:00N 34°03' W 119°47'0 0.1
2018-Aug-13 17:57N 34°03' W 119°46'1 1.2
2018-Aug-13 17:29N 34°04' W 119°46'1 0.8
2018-Aug-13 16:50N 34°03' W 119°45'0 0.1
2018-Aug-13 16:30N 34°03' W 119°45'4 6.5
2018-Aug-13 15:57N 34°04' W 119°41'5 8.9
2018-Aug-13 15:26N 34°06' W 119°36'4 9.3
2018-Aug-13 15:00N 34°06' W 119°31'5 9.6
2018-Aug-13 14:30N 34°07' W 119°25'5 9.7
2018-Aug-13 14:00N 34°08' W 119°19'5 9.2
2018-Aug-13 13:30N 34°09' W 119°14'1 1.4
2018-Aug-13 12:53N 34°10' W 119°13'0 0.0
2018-Aug-13 12:23N 34°10' W 119°13'0 0.0
2018-Aug-13 11:56N 34°10' W 119°13'0 0.0
2018-Aug-13 11:29N 34°10' W 119°13'0 0.0
2018-Aug-13 10:53N 34°10' W 119°13'0 0.0
2018-Aug-13 10:29N 34°10' W 119°13'0 0.0
2018-Aug-13 09:56N 34°10' W 119°13'0 0.0
2018-Aug-13 09:29N 34°10' W 119°13'0 0.0
2018-Aug-13 08:53N 34°10' W 119°13'0 0.0
2018-Aug-13 08:23N 34°10' W 119°13'0 0.0
2018-Aug-13 07:56N 34°10' W 119°13'0 0.0
2018-Aug-13 07:23N 34°10' W 119°13'0 0.0
2018-Aug-13 06:56N 34°10' W 119°13'0 0.0
2018-Aug-13 06:23N 34°10' W 119°13'0 0.0
2018-Aug-13 05:56N 34°10' W 119°13'0 0.0
2018-Aug-13 05:29N 34°10' W 119°13'0 0.0
2018-Aug-13 04:53N 34°10' W 119°13'0 0.0
2018-Aug-13 04:29N 34°10' W 119°13'0 0.0
2018-Aug-13 03:56N 34°10' W 119°13'0 0.0
2018-Aug-13 03:23N 34°10' W 119°13'0 0.0
2018-Aug-13 02:56N 34°10' W 119°13'0 0.0
2018-Aug-13 02:26N 34°10' W 119°13'0 0.0
2018-Aug-13 01:47N 34°10' W 119°13'0 0.0
2018-Aug-13 01:23N 34°10' W 119°13'0 0.0
2018-Aug-13 00:56N 34°10' W 119°13'0 0.0
2018-Aug-13 00:23N 34°10' W 119°13'0 0.0
2018-Aug-12 23:56N 34°10' W 119°13'0 0.0
2018-Aug-12 23:23N 34°10' W 119°13'0 0.7
2018-Aug-12 22:59N 34°10' W 119°13'4 8.6
2018-Aug-12 22:30N 34°08' W 119°18'4 7.9
2018-Aug-12 22:00N 34°07' W 119°23'4 7.8
2018-Aug-12 21:29N 34°06' W 119°27'4 7.8
2018-Aug-12 21:00N 34°04' W 119°32'4 8.5
2018-Aug-12 20:29N 34°03' W 119°36'2 1.9
2018-Aug-12 19:35N 34°01' W 119°38'0 0.2
2018-Aug-12 19:17N 34°01' W 119°38'0 0.0
2018-Aug-12 18:55N 34°01' W 119°38'2 3.0
2018-Aug-12 18:23N 34°02' W 119°36'1 0.7
2018-Aug-12 17:25N 34°03' W 119°36'0 0.1
2018-Aug-12 16:35N 34°03' W 119°36'0 0.0
2018-Aug-12 16:26N 34°03' W 119°36'0 0.1
2018-Aug-12 15:47N 34°03' W 119°36'0 0.0
2018-Aug-12 15:23N 34°03' W 119°36'3 7.0
2018-Aug-12 14:58N 34°05' W 119°33'5 9.3
2018-Aug-12 14:26N 34°06' W 119°27'4 9.7
2018-Aug-12 14:00N 34°07' W 119°22'5 9.4
2018-Aug-12 13:30N 34°08' W 119°17'3 5.8
2018-Aug-12 12:58N 34°10' W 119°13'0 0.0
2018-Aug-12 12:28N 34°10' W 119°13'0 0.0
2018-Aug-12 12:00N 34°10' W 119°13'0 0.0
2018-Aug-12 11:30N 34°10' W 119°13'0 0.0
2018-Aug-12 10:21N 34°10' W 119°13'0 0.0
2018-Aug-12 09:57N 34°10' W 119°13'0 0.0
2018-Aug-12 09:30N 34°10' W 119°13'0 0.0
2018-Aug-12 08:57N 34°10' W 119°13'0 0.0
2018-Aug-12 08:27N 34°10' W 119°13'0 0.0
2018-Aug-12 07:51N 34°10' W 119°13'0 0.0
2018-Aug-12 07:30N 34°10' W 119°13'0 0.0
2018-Aug-12 07:00N 34°10' W 119°13'0 0.0
2018-Aug-12 06:27N 34°10' W 119°13'0 0.0
2018-Aug-12 06:00N 34°10' W 119°13'0 0.0
2018-Aug-12 05:18N 34°10' W 119°13'0 0.0
2018-Aug-12 04:57N 34°10' W 119°13'0 0.0
2018-Aug-12 04:30N 34°10' W 119°13'0 0.0
2018-Aug-12 03:57N 34°10' W 119°13'0 0.0
2018-Aug-12 03:30N 34°10' W 119°13'0 0.0
2018-Aug-12 03:00N 34°10' W 119°13'0 0.0
2018-Aug-12 02:30N 34°10' W 119°13'0 0.0
2018-Aug-12 02:00N 34°10' W 119°13'0 0.0
2018-Aug-12 01:12N 34°10' W 119°13'0 0.0
2018-Aug-12 00:51N 34°10' W 119°13'0 0.0
2018-Aug-12 00:30N 34°10' W 119°13'0 0.0
2018-Aug-12 00:00N 34°10' W 119°13'0 0.0
2018-Aug-11 23:12N 34°10' W 119°13'0 0.0
2018-Aug-11 22:51N 34°10' W 119°13'0 0.0
2018-Aug-11 22:27N 34°10' W 119°13'0 0.0
2018-Aug-11 21:51N 34°10' W 119°13'0 0.2
2018-Aug-11 21:29N 34°10' W 119°13'4 8.1
2018-Aug-11 21:00N 34°07' W 119°16'5 9.2
2018-Aug-11 20:30N 34°03' W 119°19'4 6.9
2018-Aug-11 19:55N 33°60' W 119°23'0 0.1
2018-Aug-11 19:30N 33°60' W 119°23'1 1.3
2018-Aug-11 18:51N 34°01' W 119°22'1 1.8
2018-Aug-11 18:30N 34°01' W 119°21'0 0.4
2018-Aug-11 17:51N 34°01' W 119°21'2 2.1
2018-Aug-11 17:05N 34°00' W 119°23'1 8.5
2018-Aug-11 16:59N 34°00' W 119°24'2 2.5
2018-Aug-11 16:14N 34°00' W 119°26'1 0.5
2018-Aug-11 14:50N 34°01' W 119°26'3 8.2
2018-Aug-11 14:27N 34°03' W 119°23'5 9.4
2018-Aug-11 13:57N 34°06' W 119°18'5 9.4
2018-Aug-11 13:28N 34°09' W 119°14'1 1.1
2018-Aug-11 12:24N 34°10' W 119°13'0 0.0
2018-Aug-11 12:00N 34°10' W 119°13'0 0.0
2018-Aug-11 11:30N 34°10' W 119°13'0 0.0
2018-Aug-11 10:57N 34°10' W 119°13'0 0.0
2018-Aug-11 09:57N 34°10' W 119°13'0 0.0
2018-Aug-11 08:30N 34°10' W 119°13'0 0.0
2018-Aug-11 08:00N 34°10' W 119°13'0 0.0
2018-Aug-11 07:27N 34°10' W 119°13'0 0.0
2018-Aug-11 07:00N 34°10' W 119°13'0 0.0
2018-Aug-11 05:21N 34°10' W 119°13'0 0.0
2018-Aug-11 05:00N 34°10' W 119°13'0 0.0
2018-Aug-11 04:24N 34°10' W 119°13'0 0.0
2018-Aug-11 04:00N 34°10' W 119°13'0 0.0
2018-Aug-11 01:42N 34°10' W 119°13'0 0.0
2018-Aug-10 23:48N 34°10' W 119°13'0 0.2
2018-Aug-10 23:27N 34°10' W 119°13'3 5.7
2018-Aug-10 22:57N 34°09' W 119°17'4 8.5
2018-Aug-10 22:30N 34°08' W 119°21'5 9.4
2018-Aug-10 21:59N 34°06' W 119°27'4 9.3
2018-Aug-10 21:30N 34°05' W 119°32'5 9.0
2018-Aug-10 20:55N 34°04' W 119°38'4 8.9
2018-Aug-10 20:29N 34°03' W 119°43'1 2.5
2018-Aug-10 19:55N 34°03' W 119°44'0 0.0
2018-Aug-10 19:28N 34°03' W 119°44'2 1.7
2018-Aug-10 18:23N 34°04' W 119°46'1 2.3
2018-Aug-10 17:52N 34°03' W 119°45'0 0.1
2018-Aug-10 17:19N 34°03' W 119°45'0 0.0
2018-Aug-10 16:49N 34°03' W 119°45'0 0.0
2018-Aug-10 16:22N 34°03' W 119°45'2 6.3
2018-Aug-10 16:00N 34°04' W 119°42'4 8.9
2018-Aug-10 15:30N 34°04' W 119°37'4 8.6
2018-Aug-10 14:59N 34°06' W 119°32'5 9.2
2018-Aug-10 14:24N 34°07' W 119°26'4 9.6
2018-Aug-10 13:59N 34°08' W 119°21'5 9.4
2018-Aug-10 13:28N 34°09' W 119°15'2 2.5
2018-Aug-10 12:47N 34°10' W 119°13'0 0.0
2018-Aug-10 11:08N 34°10' W 119°13'0 0.0
2018-Aug-10 10:50N 34°10' W 119°13'0 0.0
2018-Aug-10 10:02N 34°10' W 119°13'0 0.0
2018-Aug-10 09:41N 34°10' W 119°13'0 0.0
2018-Aug-10 09:29N 34°10' W 119°13'0 0.0
2018-Aug-10 08:59N 34°10' W 119°13'0 0.0
2018-Aug-10 08:17N 34°10' W 119°13'0 0.0
2018-Aug-10 07:56N 34°10' W 119°13'0 0.0
2018-Aug-10 07:05N 34°10' W 119°13'0 0.0
2018-Aug-10 06:53N 34°10' W 119°13'0 0.0
2018-Aug-10 06:29N 34°10' W 119°13'0 0.0
2018-Aug-10 04:56N 34°10' W 119°13'0 0.0
2018-Aug-10 02:59N 34°10' W 119°13'0 0.0
2018-Aug-10 01:14N 34°10' W 119°13'0 0.0
2018-Aug-09 23:44N 34°10' W 119°13'0 0.0
2018-Aug-09 23:17N 34°10' W 119°13'0 1.0
2018-Aug-09 22:59N 34°10' W 119°13'5 7.8
2018-Aug-09 22:23N 34°07' W 119°18'4 7.9
2018-Aug-09 21:54N 34°04' W 119°22'3 8.1
2018-Aug-09 21:29N 34°02' W 119°25'2 2.4
2018-Aug-09 20:33N 34°00' W 119°26'2 1.0
2018-Aug-09 19:01N 33°60' W 119°24'0 0.2
2018-Aug-09 19:00N 33°60' W 119°24'2 2.9
2018-Aug-09 18:27N 34°00' W 119°22'1 2.0
2018-Aug-09 17:50N 34°01' W 119°21'0 0.9
2018-Aug-09 17:20N 34°01' W 119°21'0 0.1
2018-Aug-09 16:53N 34°01' W 119°21'0 0.0
2018-Aug-09 16:29N 34°01' W 119°21'2 3.7
2018-Aug-09 15:59N 34°01' W 119°24'2 3.3
2018-Aug-09 15:25N 34°01' W 119°26'0 0.0
2018-Aug-09 14:55N 34°01' W 119°26'3 6.0
2018-Aug-09 14:29N 34°03' W 119°24'5 8.7
2018-Aug-09 13:56N 34°06' W 119°19'4 8.9
2018-Aug-09 13:30N 34°08' W 119°15'2 2.7
2018-Aug-09 12:39N 34°10' W 119°13'0 0.0
2018-Aug-09 12:30N 34°10' W 119°13'0 0.0
2018-Aug-09 11:52N 34°10' W 119°13'0 0.0
2018-Aug-09 11:28N 34°10' W 119°13'0 0.0
2018-Aug-09 10:58N 34°10' W 119°13'0 0.0
2018-Aug-09 10:19N 34°10' W 119°13'0 0.0
2018-Aug-09 09:49N 34°10' W 119°13'0 0.0
2018-Aug-09 09:22N 34°10' W 119°13'0 0.0
2018-Aug-09 08:58N 34°10' W 119°13'0 0.0
2018-Aug-09 08:22N 34°10' W 119°13'0 0.0
2018-Aug-09 07:49N 34°10' W 119°13'0 0.0
2018-Aug-09 07:19N 34°10' W 119°13'0 0.0
2018-Aug-09 06:01N 34°10' W 119°13'0 0.0
2018-Aug-09 05:46N 34°10' W 119°13'0 0.0
2018-Aug-09 05:16N 34°10' W 119°13'0 0.0
2018-Aug-09 02:34N 34°10' W 119°13'0 0.0
2018-Aug-09 02:04N 34°10' W 119°13'0 0.0
2018-Aug-09 01:49N 34°10' W 119°13'0 0.0
2018-Aug-09 01:10N 34°10' W 119°13'0 0.0
2018-Aug-09 00:58N 34°10' W 119°13'0 0.0
2018-Aug-08 23:49N 34°10' W 119°13'0 0.0
2018-Aug-08 23:25N 34°10' W 119°13'1 1.7
2018-Aug-08 22:58N 34°09' W 119°14'4 7.5
2018-Aug-08 22:28N 34°07' W 119°18'4 7.1
2018-Aug-08 21:58N 34°05' W 119°21'4 8.1
2018-Aug-08 21:30N 34°03' W 119°25'3 5.7
2018-Aug-08 20:54N 33°60' W 119°27'0 0.5
2018-Aug-08 20:26N 34°00' W 119°27'0 0.2
2018-Aug-08 19:58N 34°00' W 119°27'0 0.3
2018-Aug-08 19:29N 34°00' W 119°27'0 0.4
2018-Aug-08 18:56N 34°00' W 119°27'0 0.2
2018-Aug-08 18:29N 34°00' W 119°27'1 2.9
2018-Aug-08 18:00N 34°01' W 119°26'0 0.1
2018-Aug-08 17:10N 34°01' W 119°26'0 0.0
2018-Aug-08 17:00N 34°01' W 119°26'0 0.1
2018-Aug-08 16:19N 34°01' W 119°26'0 0.0
2018-Aug-08 15:58N 34°01' W 119°26'0 0.0
2018-Aug-08 15:28N 34°01' W 119°26'0 0.8
2018-Aug-08 14:56N 34°01' W 119°25'4 9.1
2018-Aug-08 14:30N 34°02' W 119°21'4 7.7
2018-Aug-08 14:00N 34°06' W 119°18'4 7.9
2018-Aug-08 13:29N 34°08' W 119°15'2 2.8
2018-Aug-08 12:51N 34°10' W 119°13'0 0.0
2018-Aug-08 12:30N 34°10' W 119°13'0 0.0
2018-Aug-08 11:49N 34°10' W 119°13'0 0.0
2018-Aug-08 11:28N 34°10' W 119°13'0 0.0
2018-Aug-08 10:58N 34°10' W 119°13'0 0.0
2018-Aug-08 10:28N 34°10' W 119°13'0 0.0
2018-Aug-08 09:55N 34°10' W 119°13'0 0.0
2018-Aug-08 09:28N 34°10' W 119°13'0 0.0
2018-Aug-08 08:58N 34°10' W 119°13'0 0.0
2018-Aug-08 08:25N 34°10' W 119°13'0 0.0
2018-Aug-08 07:55N 34°10' W 119°13'0 0.0
2018-Aug-08 07:25N 34°10' W 119°13'0 0.0
2018-Aug-08 06:46N 34°10' W 119°13'0 0.0
2018-Aug-08 06:19N 34°10' W 119°13'0 0.0
2018-Aug-08 04:58N 34°10' W 119°13'0 0.0
2018-Aug-08 04:19N 34°10' W 119°13'0 0.0
2018-Aug-08 03:58N 34°10' W 119°13'0 0.0
2018-Aug-08 03:16N 34°10' W 119°13'0 0.0
2018-Aug-07 23:10N 34°10' W 119°13'0 0.0
2018-Aug-07 22:57N 34°10' W 119°13'3 6.7
2018-Aug-07 22:28N 34°08' W 119°16'4 8.2
2018-Aug-07 21:59N 34°05' W 119°20'4 8.0
2018-Aug-07 21:30N 34°03' W 119°24'3 2.4
2018-Aug-07 20:09N 34°01' W 119°27'0 0.0
2018-Aug-07 19:45N 34°01' W 119°27'0 0.0
2018-Aug-07 19:29N 34°01' W 119°27'0 0.4
2018-Aug-07 18:55N 34°01' W 119°27'3 5.2
2018-Aug-07 18:21N 34°00' W 119°24'1 2.7
2018-Aug-07 18:00N 34°00' W 119°22'1 0.9
2018-Aug-07 17:14N 34°01' W 119°22'1 0.8
2018-Aug-07 16:37N 34°01' W 119°21'0 0.0
2018-Aug-07 16:13N 34°01' W 119°21'0 0.1
2018-Aug-07 15:59N 34°01' W 119°21'0 0.0
2018-Aug-07 15:22N 34°01' W 119°21'0 0.0
2018-Aug-07 14:37N 34°01' W 119°21'0 2.8
2018-Aug-07 14:27N 34°01' W 119°21'4 8.3
2018-Aug-07 13:57N 34°05' W 119°18'4 8.2
2018-Aug-07 13:29N 34°08' W 119°15'3 4.0
2018-Aug-07 12:51N 34°10' W 119°13'0 0.0
2018-Aug-07 12:30N 34°10' W 119°13'0 0.0
2018-Aug-07 11:56N 34°10' W 119°13'0 0.0
2018-Aug-07 11:29N 34°10' W 119°13'0 0.0
2018-Aug-07 10:59N 34°10' W 119°13'0 0.0
2018-Aug-07 10:26N 34°10' W 119°13'0 0.0
2018-Aug-07 09:35N 34°10' W 119°13'0 0.0
2018-Aug-07 09:26N 34°10' W 119°13'0 0.0
2018-Aug-07 08:59N 34°10' W 119°13'0 0.0
2018-Aug-07 07:20N 34°10' W 119°13'0 0.0
2018-Aug-07 06:56N 34°10' W 119°13'0 0.0
2018-Aug-06 23:41N 34°10' W 119°13'0 0.3
2018-Aug-06 23:28N 34°10' W 119°13'5 7.8
2018-Aug-06 22:52N 34°08' W 119°19'4 8.7
2018-Aug-06 22:27N 34°07' W 119°23'4 8.9
2018-Aug-06 21:58N 34°06' W 119°28'4 8.8
2018-Aug-06 21:30N 34°04' W 119°32'3 2.9
2018-Aug-06 20:21N 34°03' W 119°36'2 5.5
2018-Aug-06 19:58N 34°01' W 119°38'1 2.1
2018-Aug-06 19:28N 34°01' W 119°39'1 1.6
2018-Aug-06 18:52N 34°01' W 119°40'3 7.1
2018-Aug-06 18:30N 34°02' W 119°37'1 1.7
2018-Aug-06 17:56N 34°03' W 119°36'0 0.9
2018-Aug-06 17:30N 34°03' W 119°36'0 0.0
2018-Aug-06 16:45N 34°03' W 119°36'0 0.0
2018-Aug-06 16:18N 34°03' W 119°36'0 0.0
2018-Aug-06 15:51N 34°03' W 119°36'2 5.2
2018-Aug-06 15:28N 34°04' W 119°34'4 8.7
2018-Aug-06 14:59N 34°05' W 119°29'4 8.4
2018-Aug-06 14:28N 34°07' W 119°24'4 8.5
2018-Aug-06 14:00N 34°08' W 119°20'4 8.6
2018-Aug-06 13:30N 34°09' W 119°14'1 2.2
2018-Aug-06 12:58N 34°10' W 119°13'0 0.0
2018-Aug-06 12:29N 34°10' W 119°13'0 0.0
2018-Aug-06 11:56N 34°10' W 119°13'0 0.0
2018-Aug-06 11:29N 34°10' W 119°13'0 0.0
2018-Aug-06 10:53N 34°10' W 119°13'0 0.0
2018-Aug-06 10:26N 34°10' W 119°13'0 0.0
2018-Aug-06 09:56N 34°10' W 119°13'0 0.0
2018-Aug-06 09:29N 34°10' W 119°13'0 0.0
2018-Aug-06 08:59N 34°10' W 119°13'0 0.0
2018-Aug-06 08:26N 34°10' W 119°13'0 0.0
2018-Aug-06 07:59N 34°10' W 119°13'0 0.0
2018-Aug-06 06:56N 34°10' W 119°13'0 0.0
2018-Aug-06 06:29N 34°10' W 119°13'0 0.0
2018-Aug-06 05:59N 34°10' W 119°13'0 0.0
2018-Aug-06 05:26N 34°10' W 119°13'0 0.0
2018-Aug-06 04:59N 34°10' W 119°13'0 0.0
2018-Aug-06 04:23N 34°10' W 119°13'0 0.0
2018-Aug-06 03:56N 34°10' W 119°13'0 0.0
2018-Aug-06 03:26N 34°10' W 119°13'0 0.0
2018-Aug-06 02:59N 34°10' W 119°13'0 0.0
2018-Aug-06 02:29N 34°10' W 119°13'0 0.0
2018-Aug-06 01:59N 34°10' W 119°13'0 0.0
2018-Aug-06 01:29N 34°10' W 119°13'0 0.0
2018-Aug-06 00:59N 34°10' W 119°13'0 0.0
2018-Aug-06 00:26N 34°10' W 119°13'0 0.0
2018-Aug-05 23:56N 34°10' W 119°13'0 0.0
2018-Aug-05 23:17N 34°10' W 119°13'0 0.7
2018-Aug-05 22:59N 34°10' W 119°13'2 3.7
2018-Aug-05 22:30N 34°08' W 119°15'3 5.8
2018-Aug-05 21:59N 34°06' W 119°17'3 6.5
2018-Aug-05 21:30N 34°04' W 119°20'4 6.7
2018-Aug-05 20:56N 34°00' W 119°22'1 1.3
2018-Aug-05 20:29N 34°00' W 119°23'0 0.1
2018-Aug-05 19:38N 34°00' W 119°23'2 7.6
2018-Aug-05 19:26N 34°01' W 119°21'0 0.2
2018-Aug-05 18:58N 34°01' W 119°21'0 0.0
2018-Aug-05 18:28N 34°01' W 119°21'0 0.0
2018-Aug-05 17:58N 34°01' W 119°21'0 0.9
2018-Aug-05 17:30N 34°01' W 119°21'0 0.0
2018-Aug-05 17:00N 34°01' W 119°21'0 0.1
2018-Aug-05 16:30N 34°01' W 119°21'0 0.0
2018-Aug-05 16:00N 34°01' W 119°21'0 0.0
2018-Aug-05 15:09N 34°01' W 119°21'0 0.0
2018-Aug-05 15:00N 34°01' W 119°21'2 4.5
2018-Aug-05 14:29N 34°03' W 119°21'8 7.8
2018-Aug-05 13:30N 34°09' W 119°15'1 2.6
2018-Aug-05 12:57N 34°10' W 119°13'0 0.0
2018-Aug-05 12:29N 34°10' W 119°13'0 0.0
2018-Aug-05 11:56N 34°10' W 119°13'0 0.0
2018-Aug-05 11:15N 34°10' W 119°13'0 0.0
2018-Aug-05 10:38N 34°10' W 119°13'0 0.0
2018-Aug-05 10:17N 34°10' W 119°13'0 0.0
2018-Aug-05 09:53N 34°10' W 119°13'0 0.0
2018-Aug-05 09:26N 34°10' W 119°13'0 0.0
2018-Aug-05 08:56N 34°10' W 119°13'0 0.0
2018-Aug-05 08:29N 34°10' W 119°13'0 0.0
2018-Aug-05 07:56N 34°10' W 119°13'0 0.0
2018-Aug-05 07:29N 34°10' W 119°13'0 0.0
2018-Aug-05 06:59N 34°10' W 119°13'0 0.0
2018-Aug-05 06:23N 34°10' W 119°13'0 0.0
2018-Aug-05 05:02N 34°10' W 119°13'0 0.0
2018-Aug-05 04:59N 34°10' W 119°13'0 0.0
2018-Aug-05 04:02N 34°10' W 119°13'0 0.0
2018-Aug-05 03:59N 34°10' W 119°13'0 0.0
2018-Aug-05 03:29N 34°10' W 119°13'0 0.0
2018-Aug-05 02:53N 34°10' W 119°13'0 0.0
2018-Aug-05 02:29N 34°10' W 119°13'0 0.0
2018-Aug-05 01:56N 34°10' W 119°13'0 0.0
2018-Aug-05 01:26N 34°10' W 119°13'0 0.0
2018-Aug-05 00:59N 34°10' W 119°13'0 0.0
2018-Aug-05 00:29N 34°10' W 119°13'0 0.1
2018-Aug-05 00:00N 34°10' W 119°13'0 0.1
2018-Aug-04 23:28N 34°10' W 119°13'1 1.0
2018-Aug-04 22:54N 34°09' W 119°14'0 1.1
2018-Aug-04 22:29N 34°09' W 119°14'2 4.4
2018-Aug-04 22:00N 34°08' W 119°16'3 5.9
2018-Aug-04 21:30N 34°05' W 119°18'3 6.1
2018-Aug-04 21:00N 34°03' W 119°21'2 3.8
2018-Aug-04 20:29N 34°01' W 119°21'0 0.0
2018-Aug-04 20:00N 34°01' W 119°21'1 2.1
2018-Aug-04 19:29N 34°00' W 119°22'0 0.3
2018-Aug-04 18:58N 34°00' W 119°22'1 2.3
2018-Aug-04 18:26N 34°01' W 119°21'0 0.0
2018-Aug-04 17:56N 34°01' W 119°21'0 0.0
2018-Aug-04 17:29N 34°01' W 119°21'0 0.1
2018-Aug-04 16:56N 34°01' W 119°21'0 1.0
2018-Aug-04 16:27N 34°01' W 119°21'0 0.0
2018-Aug-04 15:57N 34°01' W 119°21'0 0.0
2018-Aug-04 15:27N 34°01' W 119°21'0 0.0
2018-Aug-04 15:00N 34°01' W 119°21'1 1.4
2018-Aug-04 14:29N 34°02' W 119°21'4 8.1
2018-Aug-04 14:00N 34°05' W 119°18'4 8.1
2018-Aug-04 13:30N 34°08' W 119°15'2 2.5
2018-Aug-04 12:36N 34°10' W 119°13'0 0.0
2018-Aug-04 12:27N 34°10' W 119°13'0 0.0
2018-Aug-04 11:38N 34°10' W 119°13'0 0.0
2018-Aug-04 11:26N 34°10' W 119°13'0 0.0
2018-Aug-04 10:59N 34°10' W 119°13'0 0.0
2018-Aug-04 10:23N 34°10' W 119°13'0 0.0
2018-Aug-04 09:59N 34°10' W 119°13'0 0.0
2018-Aug-04 09:26N 34°10' W 119°13'0 0.0
2018-Aug-04 08:56N 34°10' W 119°13'0 0.0
2018-Aug-04 08:26N 34°10' W 119°13'0 0.0
2018-Aug-04 07:59N 34°10' W 119°13'0 0.0
2018-Aug-04 07:29N 34°10' W 119°13'0 0.0
2018-Aug-04 06:59N 34°10' W 119°13'0 0.0
2018-Aug-04 06:29N 34°10' W 119°13'  

Dump ship's entire track history